Pagina principale
METAR-TAF:

METAR-TAF

Aeroporti :

Messina, Italia

latitudine: 38-12N, longitudine: 015-33E, altezza: 59 m

Osservazione

Il bollettino è stato emesso 31 minuti fa, alle 14:55 UTC
Vento 1 kt da nord/nord-est
Temperature 16°C
Umidità 77%
Pressione 1012 hPa
Visibilità 10 km o più
Nubi sparse ad un'altezza di 2500 ft

METAR: LICF 091455Z 02001KT 9999 SCT025 16/12 Q1012 RMK OVC SCT080 OVC200 QUK 1 QUL 0 VIS MAR 16 KM MON E LIB NC MON W CIME INC NC VIS MIN 9999

Ora: 16:26 (15:26 UTC)


TAF: mancante

Osservazioni e previsioni meteorologiche di più di 4000 aeroporti (messaggi METAR e TAF).

Le stazioni disponibili sono rappresentate dai dischi gialli e rossi sulla carta.

Puntare il mouse per vedere il nome della stazione.

Clicca sopra per visualizzare le osservazioni e previsioni meteorologiche.

Per cambiare la mappa : fare clic sui pulsanti verdi con una croce nera per ingrandire, il pulsante verde con un trattino per diminuire, o sulla freccia verde per le mappe adiacenti.


METAR-TAF: